createdAt,value
2023-02-14T00:01:26.126Z,-10834.81
2023-02-14T00:04:32.804Z,-10829.94
2023-02-14T00:07:39.061Z,-10824.06
2023-02-14T00:10:45.566Z,-10824.88
2023-02-14T00:14:05.922Z,-10833.41
2023-02-14T00:17:13.404Z,-10833.84
2023-02-14T00:20:20.279Z,-10845.59
2023-02-14T00:23:26.330Z,-10845.03
2023-02-14T00:26:32.503Z,-10820.69
2023-02-14T00:29:38.562Z,-10827.28
2023-02-14T00:32:46.044Z,-10838.03
2023-02-14T00:35:52.382Z,-10847.81
2023-02-14T00:38:58.854Z,-10841.09
2023-02-14T00:42:05.358Z,-10847.25
2023-02-14T00:45:11.752Z,-10842.50
2023-02-14T00:48:19.634Z,-10831.31
2023-02-14T00:51:26.062Z,-10834.13
2023-02-14T00:54:32.734Z,-10836.34
2023-02-14T00:57:39.365Z,-10819.59
2023-02-14T01:00:45.713Z,-10828.81
2023-02-14T01:03:53.198Z,-10831.59
2023-02-14T01:06:59.593Z,-10816.38
2023-02-14T01:10:07.011Z,-10808.69
2023-02-14T01:13:14.360Z,-10823.63
2023-02-14T01:16:22.688Z,-10834.81
2023-02-14T01:19:30.203Z,-10822.38
2023-02-14T01:22:37.693Z,-10818.31
2023-02-14T01:25:44.225Z,-10817.47
2023-02-14T01:28:51.368Z,-10826.28
2023-02-14T01:31:57.858Z,-10832.44
2023-02-14T01:35:05.711Z,-10834.97
2023-02-14T01:38:12.084Z,-10832.16
2023-02-14T01:41:18.853Z,-10825.72
2023-02-14T01:44:57.631Z,-10831.75
2023-02-14T01:48:03.979Z,-10833.84
2023-02-14T01:51:11.423Z,-10828.53
2023-02-14T01:54:19.276Z,-10825.03
2023-02-14T01:57:28.111Z,-10831.47
2023-02-14T02:00:52.039Z,-10826.72
2023-02-14T02:04:02.638Z,-10823.63
2023-02-14T02:07:13.673Z,-10814.28
2023-02-14T02:10:20.365Z,-10815.66
2023-02-14T02:13:27.170Z,-10809.78
2023-02-14T02:16:59.696Z,-10814.00
2023-02-14T02:20:44.730Z,-10813.16
2023-02-14T02:24:13.452Z,-10799.72
2023-02-14T02:27:31.615Z,-10798.63
2023-02-14T02:31:07.543Z,-10810.34
2023-02-14T02:34:45.925Z,-10791.50
2023-02-14T02:38:04.818Z,-10802.38
2023-02-14T02:41:18.399Z,-10816.22
2023-02-14T02:44:32.324Z,-10822.66
2023-02-14T02:47:43.726Z,-10823.50
2023-02-14T02:51:12.526Z,-10813.84
2023-02-14T02:54:29.377Z,-10826.16
2023-02-14T02:57:41.338Z,-10808.13
2023-02-14T03:00:50.061Z,-10793.44
2023-02-14T03:04:18.975Z,-10803.09
2023-02-14T03:07:36.663Z,-10816.22
2023-02-14T03:10:44.675Z,-10818.75
2023-02-14T03:14:05.075Z,-10818.59
2023-02-14T03:17:22.349Z,-10823.78
2023-02-14T03:20:39.859Z,-10827.56
2023-02-14T03:23:55.685Z,-10828.25
2023-02-14T03:27:08.151Z,-10831.88
2023-02-14T03:30:26.154Z,-10833.84
2023-02-14T03:33:38.305Z,-10823.78
2023-02-14T03:36:51.759Z,-10821.53
2023-02-14T03:40:04.574Z,-10811.34
2023-02-14T03:43:15.248Z,-10810.06
2023-02-14T03:46:25.746Z,-10824.06
2023-02-14T03:49:36.982Z,-10806.72
2023-02-14T03:52:44.805Z,-10799.59
2023-02-14T03:55:56.376Z,-10794.97
2023-02-14T03:59:10.663Z,-10801.28
2023-02-14T04:02:21.434Z,-10821.41
2023-02-14T04:05:29.119Z,-10827.00
2023-02-14T04:08:35.414Z,-10825.44
2023-02-14T04:11:42.154Z,-10823.50
2023-02-14T04:14:49.883Z,-10820.28
2023-02-14T04:18:13.534Z,-10823.22
2023-02-14T04:21:19.932Z,-10823.91
2023-02-14T04:24:26.264Z,-10824.06
2023-02-14T04:27:32.703Z,-10823.63
2023-02-14T04:30:40.395Z,-10828.66
2023-02-14T04:33:48.197Z,-10828.66
2023-02-14T04:36:54.917Z,-10827.69
2023-02-14T04:40:01.252Z,-10820.56
2023-02-14T04:43:08.325Z,-10825.31
2023-02-14T04:46:16.097Z,-10812.31
2023-02-14T04:49:22.861Z,-10820.69
2023-02-14T04:52:28.997Z,-10796.94
2023-02-14T04:55:34.989Z,-10794.00
2023-02-14T04:58:41.180Z,-10793.88
2023-02-14T05:01:48.981Z,-10806.88
2023-02-14T05:04:55.146Z,-10797.63
2023-02-14T05:08:01.091Z,-10814.00
2023-02-14T05:11:07.421Z,-10816.94
2023-02-14T05:14:13.959Z,-10823.22
2023-02-14T05:17:21.468Z,-10813.16
2023-02-14T05:20:27.741Z,-10803.94
2023-02-14T05:23:33.780Z,-10787.59
2023-02-14T05:26:41.114Z,-10784.66
2023-02-14T05:29:47.484Z,-10765.94
2023-02-14T05:32:55.344Z,-10786.19
2023-02-14T05:36:02.790Z,-10791.34
2023-02-14T05:39:09.409Z,-10809.78
2023-02-14T05:42:15.348Z,-10807.00
2023-02-14T05:45:21.965Z,-10810.50
2023-02-14T05:48:29.465Z,-10815.09
2023-02-14T05:51:35.801Z,-10817.22
2023-02-14T05:54:41.949Z,-10819.44
2023-02-14T05:57:48.557Z,-10811.47
2023-02-14T06:00:54.649Z,-10799.47
2023-02-14T06:04:01.925Z,-10800.28
2023-02-14T06:07:08.223Z,-10815.25
2023-02-14T06:10:14.421Z,-10816.78
2023-02-14T06:13:20.827Z,-10836.63
2023-02-14T06:16:27.033Z,-10829.78
2023-02-14T06:19:34.706Z,-10819.31
2023-02-14T06:22:41.046Z,-10841.94
2023-02-14T06:25:47.235Z,-10838.59
2023-02-14T06:28:54.644Z,-10856.22
2023-02-14T06:32:05.959Z,-10877.19
2023-02-14T06:35:13.873Z,-10881.13
2023-02-14T06:38:19.936Z,-10888.97
2023-02-14T06:41:26.165Z,-10896.50
2023-02-14T06:44:32.306Z,-10899.59
2023-02-14T06:47:38.385Z,-10890.06
2023-02-14T06:50:48.411Z,-10887.28
2023-02-14T06:53:54.687Z,-10885.47
2023-02-14T06:57:00.668Z,-10892.31
2023-02-14T07:00:08.213Z,-10897.78
2023-02-14T07:03:14.529Z,-10902.81
2023-02-14T07:06:22.412Z,-10905.75
2023-02-14T07:09:28.745Z,-10916.41
2023-02-14T07:12:35.042Z,-10916.69
2023-02-14T07:15:41.170Z,-10920.16
2023-02-14T07:18:47.376Z,-10928.72
2023-02-14T07:21:54.708Z,-10927.31
2023-02-14T07:25:00.982Z,-10922.84
2023-02-14T07:28:07.092Z,-10936.28
2023-02-14T07:31:13.684Z,-10936.28
2023-02-14T07:34:19.969Z,-10953.38
2023-02-14T07:37:27.497Z,-10952.09
2023-02-14T07:40:33.489Z,-10967.53
2023-02-14T07:43:39.903Z,-10965.16
2023-02-14T07:46:45.788Z,-10965.56
2023-02-14T07:49:52.171Z,-10971.03
2023-02-14T07:52:59.706Z,-10963.03
2023-02-14T07:56:06.167Z,-10962.63
2023-02-14T07:59:12.468Z,-10971.88
2023-02-14T08:02:20.912Z,-10971.59
2023-02-14T08:05:27.217Z,-10972.56
2023-02-14T08:08:34.724Z,-10987.84
2023-02-14T08:11:58.246Z,-10990.94
2023-02-14T08:15:18.714Z,-11003.81
2023-02-14T08:18:28.895Z,-11002.72
2023-02-14T08:21:35.367Z,-11013.66
2023-02-14T08:24:45.143Z,-11006.63
2023-02-14T08:27:51.545Z,-11009.72
2023-02-14T08:30:58.291Z,-11012.94
2023-02-14T08:34:05.683Z,-11021.63
2023-02-14T08:37:11.783Z,-11014.34
2023-02-14T08:40:20.597Z,-11030.19
2023-02-14T08:43:26.874Z,-11013.66
2023-02-14T08:46:33.291Z,-11024.31
2023-02-14T08:49:39.424Z,-11028.78
2023-02-14T08:52:46.306Z,-11030.91
2023-02-14T08:55:53.763Z,-11023.59
2023-02-14T08:58:59.742Z,-11021.22
2023-02-14T09:02:05.823Z,-11018.41
2023-02-14T09:05:11.890Z,-11033.84
2023-02-14T09:08:18.090Z,-11031.03
2023-02-14T09:11:26.626Z,-11036.09
2023-02-14T09:14:36.715Z,-11033.97
2023-02-14T09:17:42.836Z,-11036.50
2023-02-14T09:20:49.002Z,-11038.34
2023-02-14T09:23:55.989Z,-11046.47
2023-02-14T09:27:03.793Z,-11034.13
2023-02-14T09:30:11.691Z,-11040.84
2023-02-14T09:33:17.721Z,-11049.28
2023-02-14T09:36:42.216Z,-11051.50
2023-02-14T09:39:48.649Z,-11052.78
2023-02-14T09:43:06.351Z,-11064.00
2023-02-14T09:46:16.826Z,-11045.78
2023-02-14T09:49:32.689Z,-11057.00
2023-02-14T09:52:39.096Z,-11061.47
2023-02-14T09:55:53.459Z,-11064.56
2023-02-14T09:59:07.209Z,-11065.69
2023-02-14T10:02:28.387Z,-11070.19
2023-02-14T10:05:42.309Z,-11074.69
2023-02-14T10:09:03.454Z,-11074.69
2023-02-14T10:12:24.408Z,-11061.91
2023-02-14T10:15:34.625Z,-11060.34
2023-02-14T10:18:47.491Z,-11074.53
2023-02-14T10:21:56.528Z,-11079.88
2023-02-14T10:25:08.002Z,-11084.63
2023-02-14T10:28:16.977Z,-11084.50
2023-02-14T10:31:26.791Z,-11093.22
2023-02-14T10:34:40.587Z,-11086.31
2023-02-14T10:37:59.246Z,-11081.00
2023-02-14T10:41:27.587Z,-11092.22
2023-02-14T10:44:46.829Z,-11087.88
2023-02-14T10:48:00.053Z,-11097.84
2023-02-14T10:51:16.646Z,-11091.09
2023-02-14T10:54:26.160Z,-11084.63
2023-02-14T10:57:37.155Z,-11099.09
2023-02-14T11:00:54.146Z,-11091.25
2023-02-14T11:04:06.705Z,-11114.13
2023-02-14T11:07:14.633Z,-11083.78
2023-02-14T11:10:29.873Z,-11072.28
2023-02-14T11:13:38.075Z,-11083.22
2023-02-14T11:16:44.153Z,-11086.19
2023-02-14T11:19:59.207Z,-11097.28
2023-02-14T11:23:20.311Z,-11075.38
2023-02-14T11:26:31.640Z,-11083.22
2023-02-14T11:29:45.732Z,-11075.09
2023-02-14T11:32:56.350Z,-11088.56
2023-02-14T11:36:06.406Z,-11084.06
2023-02-14T11:39:27.225Z,-11100.94
2023-02-14T11:42:37.088Z,-11080.84
2023-02-14T11:45:45.665Z,-11080.28
2023-02-14T11:48:58.745Z,-11084.06
2023-02-14T11:52:19.123Z,-11094.47
2023-02-14T11:55:28.239Z,-11091.09
2023-02-14T12:03:29.378Z,-11080.00
2023-02-14T12:06:37.794Z,-11083.09
2023-02-14T12:09:46.976Z,-11098.25
2023-02-14T12:12:57.108Z,-11083.66
2023-02-14T12:16:03.963Z,-11078.88
2023-02-14T12:19:17.453Z,-11088.44
2023-02-14T12:22:30.866Z,-11100.50
2023-02-14T12:25:44.186Z,-11090.13
2023-02-14T12:28:56.526Z,-11100.38
2023-02-14T12:32:07.352Z,-11093.34
2023-02-14T12:35:18.368Z,-11088.84
2023-02-14T12:38:34.967Z,-11098.97
2023-02-14T12:41:54.086Z,-11086.88
2023-02-14T12:45:11.042Z,-11095.03
2023-02-14T12:48:26.615Z,-11088.56
2023-02-14T12:51:37.150Z,-11082.13
2023-02-14T12:54:58.154Z,-11098.97
2023-02-14T12:58:22.847Z,-11105.16
2023-02-14T13:02:01.387Z,-11098.81
2023-02-14T13:05:20.579Z,-11089.13
2023-02-14T13:08:44.432Z,-11091.66
2023-02-14T13:12:02.542Z,-11088.28
2023-02-14T13:15:23.640Z,-11088.84
2023-02-14T13:18:45.235Z,-11094.88
2023-02-14T13:21:52.430Z,-11085.47
2023-02-14T13:25:03.845Z,-11079.59
2023-02-14T13:28:15.006Z,-11085.47
2023-02-14T13:31:23.623Z,-11085.91
2023-02-14T13:34:33.805Z,-11082.94
2023-02-14T13:37:40.417Z,-11091.09
2023-02-14T13:40:48.389Z,-11085.91
2023-02-14T13:43:57.514Z,-11091.09
2023-02-14T13:47:05.806Z,-11087.72
2023-02-14T13:50:22.481Z,-11084.06
2023-02-14T13:53:42.653Z,-11080.44
2023-02-14T13:56:49.085Z,-11070.88
2023-02-14T14:00:38.240Z,-11071.44
2023-02-14T14:04:04.861Z,-11087.03
2023-02-14T14:07:30.208Z,-11089.84
2023-02-14T14:10:45.996Z,-11081.28
2023-02-14T14:14:02.877Z,-11074.25
2023-02-14T14:17:26.302Z,-11069.63
2023-02-14T14:20:45.298Z,-11066.25
2023-02-14T14:24:08.621Z,-11054.88
2023-02-14T14:27:17.336Z,-11046.19
2023-02-14T14:30:29.421Z,-11039.59
2023-02-14T14:33:37.809Z,-11042.13
2023-02-14T14:36:45.300Z,-11039.72
2023-02-14T14:39:53.947Z,-11035.53
2023-02-14T14:43:13.398Z,-11031.72
2023-02-14T14:46:20.122Z,-11027.94
2023-02-14T14:49:27.696Z,-11028.66
2023-02-14T14:52:38.423Z,-11028.78
2023-02-14T14:55:52.029Z,-11026.81
2023-02-14T14:58:59.415Z,-11028.09
2023-02-14T15:02:21.998Z,-11022.34
2023-02-14T15:05:32.711Z,-11020.66
2023-02-14T15:08:40.258Z,-11019.25
2023-02-14T15:12:05.727Z,-11017.16
2023-02-14T15:15:13.430Z,-11010.28
2023-02-14T15:18:22.161Z,-11006.34
2023-02-14T15:21:29.609Z,-10998.91
2023-02-14T15:24:39.758Z,-11005.22
2023-02-14T15:27:46.377Z,-11005.78
2023-02-14T15:30:57.840Z,-11004.94
2023-02-14T15:34:05.521Z,-11001.88
2023-02-14T15:37:13.943Z,-11003.53
2023-02-14T15:40:25.190Z,-10998.91
2023-02-14T15:43:33.780Z,-10997.81
2023-02-14T15:46:42.136Z,-10997.81
2023-02-14T15:49:48.618Z,-10992.19
2023-02-14T15:52:56.993Z,-10995.41
2023-02-14T15:56:08.350Z,-10996.53
2023-02-14T15:59:19.678Z,-10992.75
2023-02-14T16:02:34.118Z,-10993.03
2023-02-14T16:05:47.037Z,-10991.50
2023-02-14T16:08:57.167Z,-10993.19
2023-02-14T16:12:24.641Z,-10992.06
2023-02-14T16:15:33.074Z,-10988.97
2023-02-14T16:18:40.737Z,-10987.16
2023-02-14T16:21:57.306Z,-10986.31
2023-02-14T16:25:03.599Z,-10988.69
2023-02-14T16:28:11.069Z,-10988.97
2023-02-14T16:31:18.118Z,-10985.31
2023-02-14T16:34:24.814Z,-10984.19
2023-02-14T16:37:33.731Z,-10985.75
2023-02-14T16:40:39.939Z,-10987.84
2023-02-14T16:43:48.825Z,-10980.13
2023-02-14T16:46:55.106Z,-10984.63
2023-02-14T16:50:01.014Z,-10981.53
2023-02-14T16:53:12.987Z,-10978.75
2023-02-14T16:56:25.065Z,-10983.34
2023-02-14T16:59:32.507Z,-10980.00
2023-02-14T17:02:39.336Z,-10980.97
2023-02-14T17:05:45.994Z,-10977.91
2023-02-14T17:08:54.346Z,-10977.19
2023-02-14T17:12:04.966Z,-10975.50
2023-02-14T17:15:17.079Z,-10977.47
2023-02-14T17:18:25.976Z,-10972.16
2023-02-14T17:21:32.207Z,-10971.03
2023-02-14T17:24:38.546Z,-10974.94
2023-02-14T17:27:46.388Z,-10973.13
2023-02-14T17:30:54.928Z,-10973.28
2023-02-14T17:34:01.145Z,-10972.44
2023-02-14T17:37:07.316Z,-10971.03
2023-02-14T17:40:14.805Z,-10974.94
2023-02-14T17:43:21.089Z,-10968.22
2023-02-14T17:46:30.069Z,-10969.91
2023-02-14T17:49:36.202Z,-10970.03
2023-02-14T17:52:43.176Z,-10966.41
2023-02-14T17:55:49.627Z,-10970.31
2023-02-14T17:58:56.617Z,-10962.63
2023-02-14T18:02:04.518Z,-10967.09
2023-02-14T18:05:12.400Z,-10967.66
2023-02-14T18:08:20.940Z,-10961.62
2023-02-14T18:11:29.303Z,-10965.16
2023-02-14T18:14:35.961Z,-10965.84
2023-02-14T18:17:43.864Z,-10968.50
2023-02-14T18:20:55.171Z,-10965.28
2023-02-14T18:24:01.416Z,-10966.53
2023-02-14T18:27:08.296Z,-10962.63
2023-02-14T18:30:15.565Z,-10965.97
2023-02-14T18:33:25.440Z,-10967.38
2023-02-14T18:36:32.973Z,-10959.81
2023-02-14T18:39:39.841Z,-10962.34
2023-02-14T18:42:46.643Z,-10958.13
2023-02-14T18:45:53.046Z,-10956.44
2023-02-14T18:49:00.869Z,-10953.38
2023-02-14T18:52:07.404Z,-10957.44
2023-02-14T18:55:14.200Z,-10956.31
2023-02-14T18:58:20.354Z,-10958.69
2023-02-14T19:01:29.544Z,-10957.00
2023-02-14T19:04:37.053Z,-10954.22
2023-02-14T19:07:45.024Z,-10956.16
2023-02-14T19:10:51.704Z,-10957.84
2023-02-14T19:13:59.810Z,-10959.69
2023-02-14T19:17:06.723Z,-10960.66
2023-02-14T19:20:16.488Z,-10955.19
2023-02-14T19:23:22.563Z,-10957.28
2023-02-14T19:26:32.894Z,-10956.31
2023-02-14T19:29:39.916Z,-10955.63
2023-02-14T19:32:46.195Z,-10957.72
2023-02-14T19:36:02.345Z,-10957.28
2023-02-14T19:39:08.958Z,-10955.88
2023-02-14T19:42:15.470Z,-10955.19
2023-02-14T19:45:22.731Z,-10955.06
2023-02-14T19:48:29.226Z,-10950.84
2023-02-14T19:51:37.849Z,-10943.00
2023-02-14T19:54:44.731Z,-10944.81
2023-02-14T19:57:51.162Z,-10944.53
2023-02-14T20:00:59.978Z,-10943.44
2023-02-14T20:04:10.127Z,-10946.50
2023-02-14T20:07:18.400Z,-10945.25
2023-02-14T20:10:24.722Z,-10945.25
2023-02-14T20:13:31.395Z,-10945.53
2023-02-14T20:16:38.904Z,-10940.06
2023-02-14T20:19:45.659Z,-10939.34
2023-02-14T20:22:53.645Z,-10937.97
2023-02-14T20:26:00.332Z,-10936.97
2023-02-14T20:29:07.452Z,-10934.47
2023-02-14T20:32:16.338Z,-10935.72
2023-02-14T20:35:23.185Z,-10940.75
2023-02-14T20:38:31.241Z,-10938.25
2023-02-14T20:41:38.122Z,-10938.81
2023-02-14T20:44:45.781Z,-10938.81
2023-02-14T20:47:52.052Z,-10940.19
2023-02-14T20:50:59.049Z,-10937.97
2023-02-14T20:54:07.127Z,-10934.19
2023-02-14T20:57:13.776Z,-10930.97
2023-02-14T21:00:25.702Z,-10929.56
2023-02-14T21:03:32.520Z,-10929.84
2023-02-14T21:06:40.139Z,-10924.50
2023-02-14T21:09:47.931Z,-10925.91
2023-02-14T21:12:54.568Z,-10922.13
2023-02-14T21:16:03.417Z,-10921.00
2023-02-14T21:19:10.228Z,-10920.59
2023-02-14T21:22:17.109Z,-10927.59
2023-02-14T21:25:26.721Z,-10919.75
2023-02-14T21:28:33.277Z,-10919.63
2023-02-14T21:31:40.538Z,-10922.56
2023-02-14T21:34:47.162Z,-10920.59
2023-02-14T21:37:53.488Z,-10915.69
2023-02-14T21:41:05.985Z,-10914.72
2023-02-14T21:44:32.404Z,-10914.56
2023-02-14T21:47:39.933Z,-10911.50
2023-02-14T21:50:45.367Z,-10910.66
2023-02-14T21:53:52.727Z,-10911.50
2023-02-14T21:57:00.728Z,-10907.44
2023-02-14T22:00:08.483Z,-10911.63
2023-02-14T22:03:15.212Z,-10908.56
2023-02-14T22:06:22.229Z,-10913.31
2023-02-14T22:09:28.579Z,-10907.72
2023-02-14T22:12:36.345Z,-10904.34
2023-02-14T22:15:42.796Z,-10906.03
2023-02-14T22:18:49.451Z,-10907.44
2023-02-14T22:21:56.105Z,-10900.44
2023-02-14T22:25:02.780Z,-10895.69
2023-02-14T22:28:11.202Z,-10899.03
2023-02-14T22:31:19.353Z,-10894.56
2023-02-14T22:34:26.029Z,-10894.13
2023-02-14T22:37:32.710Z,-10894.13
2023-02-14T22:40:39.186Z,-10894.00
2023-02-14T22:43:47.905Z,-10891.19
2023-02-14T22:46:54.295Z,-10890.78
2023-02-14T22:50:01.492Z,-10894.28
2023-02-14T22:53:08.366Z,-10890.91
2023-02-14T22:56:17.139Z,-10895.69
2023-02-14T22:59:27.441Z,-10899.31
2023-02-14T23:02:34.235Z,-10895.69
2023-02-14T23:05:40.813Z,-10895.97
2023-02-14T23:08:48.900Z,-10894.84
2023-02-14T23:11:55.399Z,-10893.44
2023-02-14T23:15:20.572Z,-10893.00
2023-02-14T23:18:44.517Z,-10897.63
2023-02-14T23:21:57.217Z,-10892.59
2023-02-14T23:25:04.824Z,-10888.97
2023-02-14T23:28:11.174Z,-10886.44
2023-02-14T23:31:18.888Z,-10887.97
2023-02-14T23:34:27.040Z,-10887.69
2023-02-14T23:37:33.637Z,-10882.53
2023-02-14T23:40:53.727Z,-10885.88
2023-02-14T23:44:00.271Z,-10887.00
2023-02-14T23:47:10.258Z,-10885.31
2023-02-14T23:50:16.366Z,-10881.41
2023-02-14T23:53:23.138Z,-10885.88
2023-02-14T23:56:29.526Z,-10878.75
2023-02-14T23:59:36.315Z,-10868.25
